KUIL/UIL METAR and TAF weather

Enter ICAO airport designator
Station Type Date Time Source
KUIL METAR 2019/11/22 00:53 UTC NOAA

KUIL 220053Z AUTO 00000KT 10SM CLR 04/03 A3000 RMK AO2 SLP160 T00440033


Station Type Date Time Source
KUIL Decoded METAR 2019/11/22 00:53 UTC NOAA

QUILLAYUTE STATE AIRPORT, WA, United States (KUIL) 47-56N 124-34W 54M
Nov 21, 2019 - 07:53 PM EST / 2019.11.22 0053 UTC
Wind: Calm:0
Visibility: 10 mile(s):0
Sky conditions: clear
Temperature: 39.9 F (4.4 C)
Dew Point: 37.9 F (3.3 C)
Relative Humidity: 92%
Pressure (altimeter): 30 in. Hg (1015 hPa)
ob: KUIL 220053Z AUTO 00000KT 10SM CLR 04/03 A3000 RMK AO2 SLP160 T00440033
cycle: 1

Station Type Date Time Source
KUIL TAF UTC NOAA

Error!

Example: see airport list